Omalius — ORRS — position and weather

sailwx.info

Track history (hours):
 
Tides and Currents Weather Stations Pressure Air Temp Water Temp Dewpoint Dewpoint Depression Visibility Wind Speed Wind Dir Waves Ship Positions

Omalius

Last reported at 2018-Feb-25 01:28 UTC. Time now 2018-Feb-25 01:59 UTC.
Position N 52°24' E 004°53'.

Length 83 m; draft 5.9 m.

Type: Other ship. MMSI: 205682000.

Date/timePositionNaut miles runAvg speedWind from/ knotsBaromVisibWave heightAir tempDewpointWater temp
2018-Feb-25 01:28N 52°24' E 004°53'0 0.0
2018-Feb-25 00:58N 52°24' E 004°53'0 0.0
2018-Feb-25 00:28N 52°24' E 004°53'0 0.0
2018-Feb-24 23:58N 52°24' E 004°53'0 0.0
2018-Feb-24 23:28N 52°24' E 004°53'0 0.0
2018-Feb-24 22:58N 52°24' E 004°53'0 0.0
2018-Feb-24 22:28N 52°24' E 004°53'0 0.0
2018-Feb-24 21:58N 52°24' E 004°53'0 0.0
2018-Feb-24 21:28N 52°24' E 004°53'0 0.0
2018-Feb-24 20:58N 52°24' E 004°53'0 0.0
2018-Feb-24 20:28N 52°24' E 004°53'0 0.0
2018-Feb-24 19:58N 52°24' E 004°53'0 0.0
2018-Feb-24 19:28N 52°24' E 004°53'0 0.0
2018-Feb-24 18:58N 52°24' E 004°53'0 0.0
2018-Feb-24 18:28N 52°24' E 004°53'0 0.0
2018-Feb-24 17:58N 52°24' E 004°53'0 0.0
2018-Feb-24 17:28N 52°24' E 004°53'0 0.0
2018-Feb-24 16:58N 52°24' E 004°53'0 0.0
2018-Feb-24 16:28N 52°24' E 004°53'0 0.0
2018-Feb-24 15:58N 52°24' E 004°53'0 0.0
2018-Feb-24 15:28N 52°24' E 004°53'0 0.0
2018-Feb-24 14:58N 52°24' E 004°53'0 0.0
2018-Feb-24 14:28N 52°24' E 004°53'0 0.0
2018-Feb-24 13:58N 52°24' E 004°53'0 0.0
2018-Feb-24 13:28N 52°24' E 004°53'0 0.0
2018-Feb-24 12:58N 52°24' E 004°53'0 0.0
2018-Feb-24 12:28N 52°24' E 004°53'0 0.0
2018-Feb-24 12:00N 52°24' E 004°53'0 0.0
2018-Feb-24 11:30N 52°24' E 004°53'0 0.0
2018-Feb-24 11:00N 52°24' E 004°53'0 0.2
2018-Feb-24 10:31N 52°24' E 004°53'3 6.3
2018-Feb-24 10:00N 52°25' E 004°48'3 6.8
2018-Feb-24 09:31N 52°26' E 004°43'3 6.7
2018-Feb-24 09:01N 52°28' E 004°38'1 2.1
2018-Feb-24 08:30N 52°28' E 004°36'2 4.4
2018-Feb-24 08:00N 52°28' E 004°32'510.3
2018-Feb-24 07:30N 52°28' E 004°24'3 6.4
2018-Feb-24 07:00N 52°28' E 004°19'4 7.8
2018-Feb-24 06:30N 52°29' E 004°12'4 7.5
2018-Feb-24 06:00N 52°29' E 004°06'4 7.4
2018-Feb-24 05:30N 52°28' E 004°00'4 7.3
2018-Feb-24 05:00N 52°27' E 003°54'3 7.0
2018-Feb-24 04:30N 52°26' E 003°49'4 7.7
2018-Feb-24 04:00N 52°25' E 003°42'4 8.0
2018-Feb-24 03:30N 52°25' E 003°36'3 5.6
2018-Feb-24 02:59N 52°24' E 003°31'3 6.4
2018-Feb-24 02:29N 52°21' E 003°28'3 6.4
2018-Feb-24 01:59N 52°19' E 003°24'3 6.5
2018-Feb-24 01:30N 52°17' E 003°21'40 6.4
2018-Feb-23 19:20N 51°41' E 002°54'3 8.1
2018-Feb-23 18:59N 51°38' E 002°51'1 1.8
2018-Feb-23 18:30N 51°37' E 002°51'0 0.0
2018-Feb-23 18:00N 51°37' E 002°51'0 0.0
2018-Feb-23 17:30N 51°37' E 002°51'0 0.0
2018-Feb-23 17:00N 51°37' E 002°51'0 0.0
2018-Feb-23 16:29N 51°37' E 002°51'0 0.0
2018-Feb-23 16:00N 51°37' E 002°51'0 0.0
2018-Feb-23 15:30N 51°37' E 002°51'0 0.0
2018-Feb-23 14:59N 51°37' E 002°51'0 0.0
2018-Feb-23 14:30N 51°37' E 002°51'0 0.0
2018-Feb-23 14:00N 51°37' E 002°51'0 0.0
2018-Feb-23 13:29N 51°37' E 002°51'0 0.0
2018-Feb-23 12:59N 51°37' E 002°51'0 0.9
2018-Feb-23 12:30N 51°37' E 002°50'2 3.3
2018-Feb-23 11:59N 51°36' E 002°48'4 9.0
2018-Feb-23 11:30N 51°40' E 002°43'5 0.1
2018-Feb-22 01:53N 51°36' E 002°48'1 0.2
2018-Feb-21 21:55N 51°37' E 002°50'0 0.0
2018-Feb-21 21:29N 51°37' E 002°50'0 0.0
2018-Feb-21 03:32N 51°37' E 002°50'0 0.0
2018-Feb-21 03:27N 51°37' E 002°50'0 0.0
2018-Feb-21 00:54N 51°37' E 002°50'0 0.0
2018-Feb-21 00:22N 51°37' E 002°50'0 0.0
2018-Feb-20 23:56N 51°37' E 002°50'0 0.0
2018-Feb-20 23:26N 51°37' E 002°50'0 0.0
2018-Feb-20 23:00N 51°37' E 002°50'0 0.0
2018-Feb-20 22:10N 51°37' E 002°50'0 0.0
2018-Feb-20 21:50N 51°37' E 002°50'0 0.0
2018-Feb-20 21:30N 51°37' E 002°50'0 0.0
2018-Feb-20 20:59N 51°37' E 002°50'0 0.0
2018-Feb-20 20:30N 51°37' E 002°50'0 0.0
2018-Feb-20 19:58N 51°37' E 002°50'0 0.0
2018-Feb-20 19:25N 51°37' E 002°50'0 0.0
2018-Feb-20 18:56N 51°37' E 002°50'0 0.0
2018-Feb-20 18:27N 51°37' E 002°50'0 0.0
2018-Feb-20 18:00N 51°37' E 002°50'0 0.0
2018-Feb-20 17:28N 51°37' E 002°50'0 0.3
2018-Feb-20 16:59N 51°37' E 002°50'2 4.0
2018-Feb-20 16:30N 51°38' E 002°52'0 0.2
2018-Feb-20 15:59N 51°38' E 002°52'0 0.0
2018-Feb-20 15:30N 51°38' E 002°52'0 0.0
2018-Feb-20 14:59N 51°38' E 002°52'0 0.0
2018-Feb-20 14:28N 51°38' E 002°52'0 0.0
2018-Feb-20 13:59N 51°38' E 002°52'0 0.0
2018-Feb-20 13:28N 51°38' E 002°52'0 0.0
2018-Feb-20 12:59N 51°38' E 002°52'0 0.0
2018-Feb-20 12:28N 51°38' E 002°52'0 0.0
2018-Feb-20 11:59N 51°38' E 002°52'0 0.0
2018-Feb-20 11:29N 51°38' E 002°52'0 0.0
2018-Feb-20 10:58N 51°38' E 002°52'0 0.0
2018-Feb-20 10:30N 51°38' E 002°52'0 0.0
2018-Feb-20 09:59N 51°38' E 002°52'0 0.0
2018-Feb-20 09:30N 51°38' E 002°52'0 0.0
2018-Feb-20 08:59N 51°38' E 002°52'0 0.0
2018-Feb-20 08:30N 51°38' E 002°52'0 0.0
2018-Feb-20 07:59N 51°38' E 002°52'0 0.0
2018-Feb-20 07:29N 51°38' E 002°52'0 0.0
2018-Feb-20 07:00N 51°38' E 002°52'0 0.0
2018-Feb-20 06:28N 51°38' E 002°52'0 0.0
2018-Feb-20 05:59N 51°38' E 002°52'0 0.0
2018-Feb-20 05:29N 51°38' E 002°52'0 0.0
2018-Feb-20 04:59N 51°38' E 002°52'0 0.0
2018-Feb-20 04:30N 51°38' E 002°52'0 0.0
2018-Feb-20 03:59N 51°38' E 002°52'0 0.0
2018-Feb-20 03:29N 51°38' E 002°52'0 0.0
2018-Feb-20 03:00N 51°38' E 002°52'0 0.0
2018-Feb-20 02:29N 51°38' E 002°52'0 0.0
2018-Feb-20 02:01N 51°38' E 002°52'0 0.0
2018-Feb-20 01:24N 51°38' E 002°52'0 0.0
2018-Feb-20 00:57N 51°38' E 002°52'0 0.0
2018-Feb-20 00:29N 51°38' E 002°52'0 0.0
2018-Feb-19 23:57N 51°38' E 002°52'0 0.0
2018-Feb-19 23:28N 51°38' E 002°52'0 0.0
2018-Feb-19 23:00N 51°38' E 002°52'0 0.0
2018-Feb-19 22:23N 51°38' E 002°52'0 0.0
2018-Feb-19 21:48N 51°38' E 002°52'0 0.0
2018-Feb-19 21:24N 51°38' E 002°52'0 0.0
2018-Feb-19 20:51N 51°38' E 002°52'0 0.0
2018-Feb-19 20:29N 51°38' E 002°52'0 0.0
2018-Feb-19 19:57N 51°38' E 002°52'0 0.0
2018-Feb-19 19:30N 51°38' E 002°52'0 0.0
2018-Feb-19 18:52N 51°38' E 002°52'0 0.0
2018-Feb-19 18:27N 51°38' E 002°52'0 0.0
2018-Feb-19 18:00N 51°38' E 002°52'0 0.0
2018-Feb-19 17:27N 51°38' E 002°52'0 0.0
2018-Feb-19 16:58N 51°38' E 002°52'0 0.0
2018-Feb-19 16:29N 51°38' E 002°52'0 0.0
2018-Feb-19 15:55N 51°38' E 002°52'0 0.0
2018-Feb-19 15:26N 51°38' E 002°52'0 0.0
2018-Feb-19 15:00N 51°38' E 002°52'0 0.0
2018-Feb-19 14:21N 51°38' E 002°52'0 0.0
2018-Feb-19 13:59N 51°38' E 002°52'0 0.0
2018-Feb-19 13:29N 51°38' E 002°52'0 0.0
2018-Feb-19 12:45N 51°38' E 002°52'0 0.0
2018-Feb-19 12:30N 51°38' E 002°52'0 0.0
2018-Feb-19 11:59N 51°38' E 002°52'0 0.0
2018-Feb-19 11:25N 51°38' E 002°52'0 0.0
2018-Feb-19 11:00N 51°38' E 002°52'0 0.0
2018-Feb-19 10:29N 51°38' E 002°52'0 0.0
2018-Feb-19 09:58N 51°38' E 002°52'0 0.0
2018-Feb-19 09:30N 51°38' E 002°52'0 0.0
2018-Feb-19 08:59N 51°38' E 002°52'0 0.0
2018-Feb-19 08:21N 51°38' E 002°52'0 0.0
2018-Feb-19 08:00N 51°38' E 002°52'0 0.0
2018-Feb-19 07:29N 51°38' E 002°52'1 2.4
2018-Feb-19 06:59N 51°39' E 002°54'0 0.5
2018-Feb-19 06:30N 51°39' E 002°54'0 0.0
2018-Feb-19 06:00N 51°39' E 002°54'0 0.0
2018-Feb-19 05:30N 51°39' E 002°54'0 0.0
2018-Feb-19 04:59N 51°39' E 002°54'0 0.0
2018-Feb-19 04:29N 51°39' E 002°54'0 0.0
2018-Feb-19 04:00N 51°39' E 002°54'0 0.0
2018-Feb-19 03:27N 51°39' E 002°54'0 0.0
2018-Feb-19 02:59N 51°39' E 002°54'0 0.0
2018-Feb-19 02:30N 51°39' E 002°54'0 0.0
2018-Feb-19 02:00N 51°39' E 002°54'0 0.0
2018-Feb-19 01:27N 51°39' E 002°54'0 0.0
2018-Feb-19 01:00N 51°39' E 002°54'0 0.0
2018-Feb-19 00:29N 51°39' E 002°54'0 0.0
2018-Feb-18 23:59N 51°39' E 002°54'0 0.0
2018-Feb-18 23:30N 51°39' E 002°54'0 0.0
2018-Feb-18 22:55N 51°39' E 002°54'0 0.0
2018-Feb-18 22:27N 51°39' E 002°54'0 0.0
2018-Feb-18 21:58N 51°39' E 002°54'0 0.0
2018-Feb-18 21:28N 51°39' E 002°54'0 0.0
2018-Feb-18 21:00N 51°39' E 002°54'0 0.0
2018-Feb-18 20:29N 51°39' E 002°54'0 0.0
2018-Feb-18 20:00N 51°39' E 002°54'0 0.0
2018-Feb-18 19:31N 51°39' E 002°54'0 0.0
2018-Feb-18 18:58N 51°39' E 002°54'0 0.0
2018-Feb-18 18:28N 51°39' E 002°54'0 0.0
2018-Feb-18 18:00N 51°39' E 002°54'0 0.0
2018-Feb-18 17:28N 51°39' E 002°54'0 0.0
2018-Feb-18 16:58N 51°39' E 002°54'0 0.0
2018-Feb-18 16:30N 51°39' E 002°54'0 0.0
2018-Feb-18 16:00N 51°39' E 002°54'0 0.0
2018-Feb-18 15:29N 51°39' E 002°54'0 0.0
2018-Feb-18 14:58N 51°39' E 002°54'0 0.0
2018-Feb-18 14:28N 51°39' E 002°54'0 0.0
2018-Feb-18 13:58N 51°39' E 002°54'0 0.0
2018-Feb-18 13:29N 51°39' E 002°54'0 0.0
2018-Feb-18 12:59N 51°39' E 002°54'0 0.0
2018-Feb-18 12:29N 51°39' E 002°54'0 0.0
2018-Feb-18 11:59N 51°39' E 002°54'0 0.0
2018-Feb-18 11:28N 51°39' E 002°54'0 0.0
2018-Feb-18 11:00N 51°39' E 002°54'0 0.0
2018-Feb-18 10:30N 51°39' E 002°54'0 0.0
2018-Feb-18 09:58N 51°39' E 002°54'0 0.0
2018-Feb-18 09:16N 51°39' E 002°54'0 0.0
2018-Feb-18 09:00N 51°39' E 002°54'0 0.0
2018-Feb-18 08:20N 51°39' E 002°54'0 0.0
2018-Feb-18 07:59N 51°39' E 002°54'0 0.0
2018-Feb-18 07:27N 51°39' E 002°54'0 0.0
2018-Feb-18 06:57N 51°39' E 002°54'0 0.0
2018-Feb-18 06:27N 51°39' E 002°54'0 0.0
2018-Feb-18 05:59N 51°39' E 002°54'0 0.0
2018-Feb-18 05:26N 51°39' E 002°54'0 0.0
2018-Feb-18 05:01N 51°39' E 002°54'0 0.0
2018-Feb-18 04:28N 51°39' E 002°54'0 0.0
2018-Feb-18 03:56N 51°39' E 002°54'0 0.0
2018-Feb-18 03:30N 51°39' E 002°54'0 0.0
2018-Feb-18 02:58N 51°39' E 002°54'0 0.0
2018-Feb-18 02:25N 51°39' E 002°54'0 0.0
2018-Feb-18 01:58N 51°39' E 002°54'0 0.0
2018-Feb-18 01:29N 51°39' E 002°54'0 0.0
2018-Feb-18 01:00N 51°39' E 002°54'0 0.0
2018-Feb-18 00:26N 51°39' E 002°54'0 0.0
2018-Feb-17 23:57N 51°39' E 002°54'0 0.0
2018-Feb-17 23:21N 51°39' E 002°54'0 0.0
2018-Feb-17 22:58N 51°39' E 002°54'0 0.0
2018-Feb-17 22:29N 51°39' E 002°54'0 0.0
2018-Feb-17 22:00N 51°39' E 002°54'0 0.0
2018-Feb-17 21:29N 51°39' E 002°54'0 0.0
2018-Feb-17 21:00N 51°39' E 002°54'2 4.3
2018-Feb-17 20:26N 51°37' E 002°51'4 6.6
2018-Feb-17 19:48N 51°34' E 002°47'1 2.1
2018-Feb-17 19:30N 51°34' E 002°48'1 1.6
2018-Feb-17 18:57N 51°34' E 002°49'1 1.3
2018-Feb-17 18:28N 51°34' E 002°49'1 1.6
2018-Feb-17 18:00N 51°33' E 002°49'2 3.3
2018-Feb-17 17:29N 51°31' E 002°48'2 3.9
2018-Feb-17 17:00N 51°30' E 002°47'2 4.5
2018-Feb-17 16:29N 51°27' E 002°46'3 6.7
2018-Feb-17 15:59N 51°24' E 002°44'510.3
2018-Feb-17 15:30N 51°20' E 002°48'611.9
2018-Feb-17 15:00N 51°15' E 002°54'2 3.6
2018-Feb-17 14:28N 51°14' E 002°56'0 0.0
2018-Feb-17 13:58N 51°14' E 002°56'0 0.0
2018-Feb-17 13:25N 51°14' E 002°56'0 0.0
2018-Feb-17 12:58N 51°14' E 002°56'0 0.0
2018-Feb-17 12:28N 51°14' E 002°56'0 0.0
2018-Feb-17 11:58N 51°14' E 002°56'0 0.0
2018-Feb-17 11:28N 51°14' E 002°56'0 0.0
2018-Feb-17 10:58N 51°14' E 002°56'0 0.0
2018-Feb-17 10:28N 51°14' E 002°56'0 0.0
2018-Feb-17 09:55N 51°14' E 002°56'0 0.0
2018-Feb-17 09:25N 51°14' E 002°56'0 0.0
2018-Feb-17 08:58N 51°14' E 002°56'0 0.0
2018-Feb-17 08:28N 51°14' E 002°56'0 0.0
2018-Feb-17 07:58N 51°14' E 002°56'0 0.0
2018-Feb-17 07:28N 51°14' E 002°56'0 0.0
2018-Feb-17 06:55N 51°14' E 002°56'0 0.0
2018-Feb-17 06:28N 51°14' E 002°56'0 0.0
2018-Feb-17 05:58N 51°14' E 002°56'0 0.0
2018-Feb-17 05:28N 51°14' E 002°56'0 0.0
2018-Feb-17 04:58N 51°14' E 002°56'0 0.0
2018-Feb-17 04:22N 51°14' E 002°56'0 0.0
2018-Feb-17 03:58N 51°14' E 002°56'0 0.0
2018-Feb-17 03:28N 51°14' E 002°56'0 0.0
2018-Feb-17 03:00N 51°14' E 002°56'0 0.0
2018-Feb-17 02:30N 51°14' E 002°56'0 0.0
2018-Feb-17 02:01N 51°14' E 002°56'0 0.0
2018-Feb-17 01:31N 51°14' E 002°56'0 0.0
2018-Feb-17 01:00N 51°14' E 002°56'0 0.0
2018-Feb-17 00:30N 51°14' E 002°56'0 0.0
2018-Feb-17 00:00N 51°14' E 002°56'0 0.0
2018-Feb-16 23:30N 51°14' E 002°56'0 0.0
2018-Feb-16 23:01N 51°14' E 002°56'0 0.0
2018-Feb-16 22:30N 51°14' E 002°56'0 0.0
2018-Feb-16 22:00N 51°14' E 002°56'0 0.0
2018-Feb-16 21:30N 51°14' E 002°56'0 0.0
2018-Feb-16 21:00N 51°14' E 002°56'0 0.0
2018-Feb-16 20:30N 51°14' E 002°56'0 0.0
2018-Feb-16 20:00N 51°14' E 002°56'0 0.0
2018-Feb-16 19:31N 51°14' E 002°56'0 0.0
2018-Feb-16 19:00N 51°14' E 002°56'0 0.0
2018-Feb-16 18:30N 51°14' E 002°56'0 0.0
2018-Feb-16 18:00N 51°14' E 002°56'0 0.0
2018-Feb-16 17:31N 51°14' E 002°56'0 0.0
2018-Feb-16 17:00N 51°14' E 002°56'1 2.0
2018-Feb-16 16:31N 51°15' E 002°55'510.0
2018-Feb-16 16:00N 51°19' E 002°50'510.1
2018-Feb-16 15:30N 51°22' E 002°44'2 4.4
2018-Feb-16 14:59N 51°24' E 002°44'2 3.8
2018-Feb-16 14:30N 51°26' E 002°45'2 3.6
2018-Feb-16 13:58N 51°28' E 002°46'2 3.7
2018-Feb-16 13:30N 51°30' E 002°47'2 3.6
2018-Feb-16 13:00N 51°31' E 002°48'2 3.7
2018-Feb-16 12:29N 51°33' E 002°49'2 4.4
2018-Feb-16 12:00N 51°35' E 002°50'3 4.8
2018-Feb-16 11:28N 51°38' E 002°51'3 5.3
2018-Feb-16 10:59N 51°39' E 002°54'0 0.1
2018-Feb-16 10:30N 51°39' E 002°54'0 0.0
2018-Feb-16 09:59N 51°39' E 002°54'0 0.0
2018-Feb-16 09:30N 51°39' E 002°54'0 0.0
2018-Feb-16 08:59N 51°39' E 002°54'0 0.0
2018-Feb-16 08:27N 51°39' E 002°54'0 0.0
2018-Feb-16 07:59N 51°39' E 002°54'0 0.0
2018-Feb-16 07:28N 51°39' E 002°54'0 0.0
2018-Feb-16 06:59N 51°39' E 002°54'0 0.0
2018-Feb-16 06:30N 51°39' E 002°54'0 0.0
2018-Feb-16 06:00N 51°39' E 002°54'0 0.0
2018-Feb-16 05:28N 51°39' E 002°54'0 0.0
2018-Feb-16 04:54N 51°39' E 002°54'0 0.0
2018-Feb-16 04:27N 51°39' E 002°54'0 0.0
2018-Feb-16 03:59N 51°39' E 002°54'0 0.0
2018-Feb-16 03:30N 51°39' E 002°54'0 0.0
2018-Feb-16 02:59N 51°39' E 002°54'0 0.0
2018-Feb-16 02:30N 51°39' E 002°54'0 0.0
2018-Feb-16 01:57N 51°39' E 002°54'0 0.0
2018-Feb-16 01:29N 51°39' E 002°54'0 0.0
2018-Feb-16 00:59N 51°39' E 002°54'0 0.0
2018-Feb-16 00:30N 51°39' E 002°54'0 0.0
2018-Feb-15 23:59N 51°39' E 002°54'0 0.0
2018-Feb-15 23:28N 51°39' E 002°54'0 0.0
2018-Feb-15 22:59N 51°39' E 002°54'0 0.1
2018-Feb-15 22:28N 51°39' E 002°54'0 0.0
2018-Feb-15 21:59N 51°39' E 002°54'0 0.0
2018-Feb-15 21:29N 51°39' E 002°54'0 0.0
2018-Feb-15 20:58N 51°39' E 002°54'0 0.0
2018-Feb-15 20:30N 51°39' E 002°54'0 0.0
2018-Feb-15 19:59N 51°39' E 002°54'0 0.0
2018-Feb-15 19:29N 51°39' E 002°54'0 0.0
2018-Feb-15 18:59N 51°39' E 002°54'0 0.0
2018-Feb-15 18:29N 51°39' E 002°54'0 0.0
2018-Feb-15 17:58N 51°39' E 002°54'0 0.0
2018-Feb-15 17:30N 51°39' E 002°54'0 0.0
2018-Feb-15 17:00N 51°39' E 002°54'0 0.0
2018-Feb-15 16:30N 51°39' E 002°54'0 0.0
2018-Feb-15 16:00N 51°39' E 002°54'0 0.0
2018-Feb-15 15:30N 51°39' E 002°54'0 0.0
2018-Feb-15 15:00N 51°39' E 002°54'0 0.0
2018-Feb-15 14:30N 51°39' E 002°54'0 0.0
2018-Feb-15 13:59N 51°39' E 002°54'0 0.0
2018-Feb-15 13:30N 51°39' E 002°54'0 0.0
2018-Feb-15 12:58N 51°39' E 002°54'0 0.0
2018-Feb-15 12:29N 51°39' E 002°54'0 0.0
2018-Feb-15 12:00N 51°39' E 002°54'0 0.0
2018-Feb-15 11:26N 51°39' E 002°54'0 0.0
2018-Feb-15 10:58N 51°39' E 002°54'0 0.0
2018-Feb-15 10:30N 51°39' E 002°54'0 0.0
2018-Feb-15 09:59N 51°39' E 002°54'0 0.0
2018-Feb-15 09:25N 51°39' E 002°54'0 0.4
2018-Feb-15 08:59N 51°39' E 002°54'7 9.5
2018-Feb-15 08:16N 51°33' E 002°48'310.5
2018-Feb-15 07:58N 51°30' E 002°47'510.8
2018-Feb-15 07:30N 51°25' E 002°44'5 9.2
2018-Feb-15 07:00N 51°21' E 002°47'611.1
2018-Feb-15 06:30N 51°17' E 002°53'3 6.1
2018-Feb-15 05:57N 51°14' E 002°56'0 0.0
2018-Feb-15 05:30N 51°14' E 002°56'0 0.0
2018-Feb-15 04:51N 51°14' E 002°56'0 0.0
2018-Feb-15 04:30N 51°14' E 002°56'0 0.0
2018-Feb-15 03:57N 51°14' E 002°56'0 0.0
2018-Feb-15 03:30N 51°14' E 002°56'0 0.0
2018-Feb-15 02:09N 51°14' E 002°56'0 0.0
2018-Feb-15 01:36N 51°14' E 002°56'  
Track history (hours):
 
Tides and Currents Weather Stations Pressure Air Temp Water Temp Dewpoint Dewpoint Depression Visibility Wind Speed Wind Dir Waves Ship Positions

Omalius

Last reported at 2018-Feb-25 01:28 UTC. Time now 2018-Feb-25 01:59 UTC.
Position N 52°24' E 004°53'.

Length 83 m; draft 5.9 m.

Type: Other ship. MMSI: 205682000.

Date/timePositionNaut miles runAvg speedWind from/ knotsBaromVisibWave heightAir tempDewpointWater temp
2018-Feb-25 01:28N 52°24' E 004°53'0 0.0
2018-Feb-25 00:58N 52°24' E 004°53'0 0.0
2018-Feb-25 00:28N 52°24' E 004°53'0 0.0
2018-Feb-24 23:58N 52°24' E 004°53'0 0.0
2018-Feb-24 23:28N 52°24' E 004°53'0 0.0
2018-Feb-24 22:58N 52°24' E 004°53'0 0.0
2018-Feb-24 22:28N 52°24' E 004°53'0 0.0
2018-Feb-24 21:58N 52°24' E 004°53'0 0.0
2018-Feb-24 21:28N 52°24' E 004°53'0 0.0
2018-Feb-24 20:58N 52°24' E 004°53'0 0.0
2018-Feb-24 20:28N 52°24' E 004°53'0 0.0
2018-Feb-24 19:58N 52°24' E 004°53'0 0.0
2018-Feb-24 19:28N 52°24' E 004°53'0 0.0
2018-Feb-24 18:58N 52°24' E 004°53'0 0.0
2018-Feb-24 18:28N 52°24' E 004°53'0 0.0
2018-Feb-24 17:58N 52°24' E 004°53'0 0.0
2018-Feb-24 17:28N 52°24' E 004°53'0 0.0
2018-Feb-24 16:58N 52°24' E 004°53'0 0.0
2018-Feb-24 16:28N 52°24' E 004°53'0 0.0
2018-Feb-24 15:58N 52°24' E 004°53'0 0.0
2018-Feb-24 15:28N 52°24' E 004°53'0 0.0
2018-Feb-24 14:58N 52°24' E 004°53'0 0.0
2018-Feb-24 14:28N 52°24' E 004°53'0 0.0
2018-Feb-24 13:58N 52°24' E 004°53'0 0.0
2018-Feb-24 13:28N 52°24' E 004°53'0 0.0
2018-Feb-24 12:58N 52°24' E 004°53'0 0.0
2018-Feb-24 12:28N 52°24' E 004°53'0 0.0
2018-Feb-24 12:00N 52°24' E 004°53'0 0.0
2018-Feb-24 11:30N 52°24' E 004°53'0 0.0
2018-Feb-24 11:00N 52°24' E 004°53'0 0.2
2018-Feb-24 10:31N 52°24' E 004°53'3 6.3
2018-Feb-24 10:00N 52°25' E 004°48'3 6.8
2018-Feb-24 09:31N 52°26' E 004°43'3 6.7
2018-Feb-24 09:01N 52°28' E 004°38'1 2.1
2018-Feb-24 08:30N 52°28' E 004°36'2 4.4
2018-Feb-24 08:00N 52°28' E 004°32'510.3
2018-Feb-24 07:30N 52°28' E 004°24'3 6.4
2018-Feb-24 07:00N 52°28' E 004°19'4 7.8
2018-Feb-24 06:30N 52°29' E 004°12'4 7.5
2018-Feb-24 06:00N 52°29' E 004°06'4 7.4
2018-Feb-24 05:30N 52°28' E 004°00'4 7.3
2018-Feb-24 05:00N 52°27' E 003°54'3 7.0
2018-Feb-24 04:30N 52°26' E 003°49'4 7.7
2018-Feb-24 04:00N 52°25' E 003°42'4 8.0
2018-Feb-24 03:30N 52°25' E 003°36'3 5.6
2018-Feb-24 02:59N 52°24' E 003°31'3 6.4
2018-Feb-24 02:29N 52°21' E 003°28'3 6.4
2018-Feb-24 01:59N 52°19' E 003°24'3 6.5
2018-Feb-24 01:30N 52°17' E 003°21'40 6.4
2018-Feb-23 19:20N 51°41' E 002°54'3 8.1
2018-Feb-23 18:59N 51°38' E 002°51'1 1.8
2018-Feb-23 18:30N 51°37' E 002°51'0 0.0
2018-Feb-23 18:00N 51°37' E 002°51'0 0.0
2018-Feb-23 17:30N 51°37' E 002°51'0 0.0
2018-Feb-23 17:00N 51°37' E 002°51'0 0.0
2018-Feb-23 16:29N 51°37' E 002°51'0 0.0
2018-Feb-23 16:00N 51°37' E 002°51'0 0.0
2018-Feb-23 15:30N 51°37' E 002°51'0 0.0
2018-Feb-23 14:59N 51°37' E 002°51'0 0.0
2018-Feb-23 14:30N 51°37' E 002°51'0 0.0
2018-Feb-23 14:00N 51°37' E 002°51'0 0.0
2018-Feb-23 13:29N 51°37' E 002°51'0 0.0
2018-Feb-23 12:59N 51°37' E 002°51'0 0.9
2018-Feb-23 12:30N 51°37' E 002°50'2 3.3
2018-Feb-23 11:59N 51°36' E 002°48'4 9.0
2018-Feb-23 11:30N 51°40' E 002°43'5 0.1
2018-Feb-22 01:53N 51°36' E 002°48'1 0.2
2018-Feb-21 21:55N 51°37' E 002°50'0 0.0
2018-Feb-21 21:29N 51°37' E 002°50'0 0.0
2018-Feb-21 03:32N 51°37' E 002°50'0 0.0
2018-Feb-21 03:27N 51°37' E 002°50'0 0.0
2018-Feb-21 00:54N 51°37' E 002°50'0 0.0
2018-Feb-21 00:22N 51°37' E 002°50'0 0.0
2018-Feb-20 23:56N 51°37' E 002°50'0 0.0
2018-Feb-20 23:26N 51°37' E 002°50'0 0.0
2018-Feb-20 23:00N 51°37' E 002°50'0 0.0
2018-Feb-20 22:10N 51°37' E 002°50'0 0.0
2018-Feb-20 21:50N 51°37' E 002°50'0 0.0
2018-Feb-20 21:30N 51°37' E 002°50'0 0.0
2018-Feb-20 20:59N 51°37' E 002°50'0 0.0
2018-Feb-20 20:30N 51°37' E 002°50'0 0.0
2018-Feb-20 19:58N 51°37' E 002°50'0 0.0
2018-Feb-20 19:25N 51°37' E 002°50'0 0.0
2018-Feb-20 18:56N 51°37' E 002°50'0 0.0
2018-Feb-20 18:27N 51°37' E 002°50'0 0.0
2018-Feb-20 18:00N 51°37' E 002°50'0 0.0
2018-Feb-20 17:28N 51°37' E 002°50'0 0.3
2018-Feb-20 16:59N 51°37' E 002°50'2 4.0
2018-Feb-20 16:30N 51°38' E 002°52'0 0.2
2018-Feb-20 15:59N 51°38' E 002°52'0 0.0
2018-Feb-20 15:30N 51°38' E 002°52'0 0.0
2018-Feb-20 14:59N 51°38' E 002°52'0 0.0
2018-Feb-20 14:28N 51°38' E 002°52'0 0.0
2018-Feb-20 13:59N 51°38' E 002°52'0 0.0
2018-Feb-20 13:28N 51°38' E 002°52'0 0.0
2018-Feb-20 12:59N 51°38' E 002°52'0 0.0
2018-Feb-20 12:28N 51°38' E 002°52'0 0.0
2018-Feb-20 11:59N 51°38' E 002°52'0 0.0
2018-Feb-20 11:29N 51°38' E 002°52'0 0.0
2018-Feb-20 10:58N 51°38' E 002°52'0 0.0
2018-Feb-20 10:30N 51°38' E 002°52'0 0.0
2018-Feb-20 09:59N 51°38' E 002°52'0 0.0
2018-Feb-20 09:30N 51°38' E 002°52'0 0.0
2018-Feb-20 08:59N 51°38' E 002°52'0 0.0
2018-Feb-20 08:30N 51°38' E 002°52'0 0.0
2018-Feb-20 07:59N 51°38' E 002°52'0 0.0
2018-Feb-20 07:29N 51°38' E 002°52'0 0.0
2018-Feb-20 07:00N 51°38' E 002°52'0 0.0
2018-Feb-20 06:28N 51°38' E 002°52'0 0.0
2018-Feb-20 05:59N 51°38' E 002°52'0 0.0
2018-Feb-20 05:29N 51°38' E 002°52'0 0.0
2018-Feb-20 04:59N 51°38' E 002°52'0 0.0
2018-Feb-20 04:30N 51°38' E 002°52'0 0.0
2018-Feb-20 03:59N 51°38' E 002°52'0 0.0
2018-Feb-20 03:29N 51°38' E 002°52'0 0.0
2018-Feb-20 03:00N 51°38' E 002°52'0 0.0
2018-Feb-20 02:29N 51°38' E 002°52'0 0.0
2018-Feb-20 02:01N 51°38' E 002°52'0 0.0
2018-Feb-20 01:24N 51°38' E 002°52'0 0.0
2018-Feb-20 00:57N 51°38' E 002°52'0 0.0
2018-Feb-20 00:29N 51°38' E 002°52'0 0.0
2018-Feb-19 23:57N 51°38' E 002°52'0 0.0
2018-Feb-19 23:28N 51°38' E 002°52'0 0.0
2018-Feb-19 23:00N 51°38' E 002°52'0 0.0
2018-Feb-19 22:23N 51°38' E 002°52'0 0.0
2018-Feb-19 21:48N 51°38' E 002°52'0 0.0
2018-Feb-19 21:24N 51°38' E 002°52'0 0.0
2018-Feb-19 20:51N 51°38' E 002°52'0 0.0
2018-Feb-19 20:29N 51°38' E 002°52'0 0.0
2018-Feb-19 19:57N 51°38' E 002°52'0 0.0
2018-Feb-19 19:30N 51°38' E 002°52'0 0.0
2018-Feb-19 18:52N 51°38' E 002°52'0 0.0
2018-Feb-19 18:27N 51°38' E 002°52'0 0.0
2018-Feb-19 18:00N 51°38' E 002°52'0 0.0
2018-Feb-19 17:27N 51°38' E 002°52'0 0.0
2018-Feb-19 16:58N 51°38' E 002°52'0 0.0
2018-Feb-19 16:29N 51°38' E 002°52'0 0.0
2018-Feb-19 15:55N 51°38' E 002°52'0 0.0
2018-Feb-19 15:26N 51°38' E 002°52'0 0.0
2018-Feb-19 15:00N 51°38' E 002°52'0 0.0
2018-Feb-19 14:21N 51°38' E 002°52'0 0.0
2018-Feb-19 13:59N 51°38' E 002°52'0 0.0
2018-Feb-19 13:29N 51°38' E 002°52'0 0.0
2018-Feb-19 12:45N 51°38' E 002°52'0 0.0
2018-Feb-19 12:30N 51°38' E 002°52'0 0.0
2018-Feb-19 11:59N 51°38' E 002°52'0 0.0
2018-Feb-19 11:25N 51°38' E 002°52'0 0.0
2018-Feb-19 11:00N 51°38' E 002°52'0 0.0
2018-Feb-19 10:29N 51°38' E 002°52'0 0.0
2018-Feb-19 09:58N 51°38' E 002°52'0 0.0
2018-Feb-19 09:30N 51°38' E 002°52'0 0.0
2018-Feb-19 08:59N 51°38' E 002°52'0 0.0
2018-Feb-19 08:21N 51°38' E 002°52'0 0.0
2018-Feb-19 08:00N 51°38' E 002°52'0 0.0
2018-Feb-19 07:29N 51°38' E 002°52'1 2.4
2018-Feb-19 06:59N 51°39' E 002°54'0 0.5
2018-Feb-19 06:30N 51°39' E 002°54'0 0.0
2018-Feb-19 06:00N 51°39' E 002°54'0 0.0
2018-Feb-19 05:30N 51°39' E 002°54'0 0.0
2018-Feb-19 04:59N 51°39' E 002°54'0 0.0
2018-Feb-19 04:29N 51°39' E 002°54'0 0.0
2018-Feb-19 04:00N 51°39' E 002°54'0 0.0
2018-Feb-19 03:27N 51°39' E 002°54'0 0.0
2018-Feb-19 02:59N 51°39' E 002°54'0 0.0
2018-Feb-19 02:30N 51°39' E 002°54'0 0.0
2018-Feb-19 02:00N 51°39' E 002°54'0 0.0
2018-Feb-19 01:27N 51°39' E 002°54'0 0.0
2018-Feb-19 01:00N 51°39' E 002°54'0 0.0
2018-Feb-19 00:29N 51°39' E 002°54'0 0.0
2018-Feb-18 23:59N 51°39' E 002°54'0 0.0
2018-Feb-18 23:30N 51°39' E 002°54'0 0.0
2018-Feb-18 22:55N 51°39' E 002°54'0 0.0
2018-Feb-18 22:27N 51°39' E 002°54'0 0.0
2018-Feb-18 21:58N 51°39' E 002°54'0 0.0
2018-Feb-18 21:28N 51°39' E 002°54'0 0.0
2018-Feb-18 21:00N 51°39' E 002°54'0 0.0
2018-Feb-18 20:29N 51°39' E 002°54'0 0.0
2018-Feb-18 20:00N 51°39' E 002°54'0 0.0
2018-Feb-18 19:31N 51°39' E 002°54'0 0.0
2018-Feb-18 18:58N 51°39' E 002°54'0 0.0
2018-Feb-18 18:28N 51°39' E 002°54'0 0.0
2018-Feb-18 18:00N 51°39' E 002°54'0 0.0
2018-Feb-18 17:28N 51°39' E 002°54'0 0.0
2018-Feb-18 16:58N 51°39' E 002°54'0 0.0
2018-Feb-18 16:30N 51°39' E 002°54'0 0.0
2018-Feb-18 16:00N 51°39' E 002°54'0 0.0
2018-Feb-18 15:29N 51°39' E 002°54'0 0.0
2018-Feb-18 14:58N 51°39' E 002°54'0 0.0
2018-Feb-18 14:28N 51°39' E 002°54'0 0.0
2018-Feb-18 13:58N 51°39' E 002°54'0 0.0
2018-Feb-18 13:29N 51°39' E 002°54'0 0.0
2018-Feb-18 12:59N 51°39' E 002°54'0 0.0
2018-Feb-18 12:29N 51°39' E 002°54'0 0.0
2018-Feb-18 11:59N 51°39' E 002°54'0 0.0
2018-Feb-18 11:28N 51°39' E 002°54'0 0.0
2018-Feb-18 11:00N 51°39' E 002°54'0 0.0
2018-Feb-18 10:30N 51°39' E 002°54'0 0.0
2018-Feb-18 09:58N 51°39' E 002°54'0 0.0
2018-Feb-18 09:16N 51°39' E 002°54'0 0.0
2018-Feb-18 09:00N 51°39' E 002°54'0 0.0
2018-Feb-18 08:20N 51°39' E 002°54'0 0.0
2018-Feb-18 07:59N 51°39' E 002°54'0 0.0
2018-Feb-18 07:27N 51°39' E 002°54'0 0.0
2018-Feb-18 06:57N 51°39' E 002°54'0 0.0
2018-Feb-18 06:27N 51°39' E 002°54'0 0.0
2018-Feb-18 05:59N 51°39' E 002°54'0 0.0
2018-Feb-18 05:26N 51°39' E 002°54'0 0.0
2018-Feb-18 05:01N 51°39' E 002°54'0 0.0
2018-Feb-18 04:28N 51°39' E 002°54'0 0.0
2018-Feb-18 03:56N 51°39' E 002°54'0 0.0
2018-Feb-18 03:30N 51°39' E 002°54'0 0.0
2018-Feb-18 02:58N 51°39' E 002°54'0 0.0
2018-Feb-18 02:25N 51°39' E 002°54'0 0.0
2018-Feb-18 01:58N 51°39' E 002°54'0 0.0
2018-Feb-18 01:29N 51°39' E 002°54'0 0.0
2018-Feb-18 01:00N 51°39' E 002°54'0 0.0
2018-Feb-18 00:26N 51°39' E 002°54'0 0.0
2018-Feb-17 23:57N 51°39' E 002°54'0 0.0
2018-Feb-17 23:21N 51°39' E 002°54'0 0.0
2018-Feb-17 22:58N 51°39' E 002°54'0 0.0
2018-Feb-17 22:29N 51°39' E 002°54'0 0.0
2018-Feb-17 22:00N 51°39' E 002°54'0 0.0
2018-Feb-17 21:29N 51°39' E 002°54'0 0.0
2018-Feb-17 21:00N 51°39' E 002°54'2 4.3
2018-Feb-17 20:26N 51°37' E 002°51'4 6.6
2018-Feb-17 19:48N 51°34' E 002°47'1 2.1
2018-Feb-17 19:30N 51°34' E 002°48'1 1.6
2018-Feb-17 18:57N 51°34' E 002°49'1 1.3
2018-Feb-17 18:28N 51°34' E 002°49'1 1.6
2018-Feb-17 18:00N 51°33' E 002°49'2 3.3
2018-Feb-17 17:29N 51°31' E 002°48'2 3.9
2018-Feb-17 17:00N 51°30' E 002°47'2 4.5
2018-Feb-17 16:29N 51°27' E 002°46'3 6.7
2018-Feb-17 15:59N 51°24' E 002°44'510.3
2018-Feb-17 15:30N 51°20' E 002°48'611.9
2018-Feb-17 15:00N 51°15' E 002°54'2 3.6
2018-Feb-17 14:28N 51°14' E 002°56'0 0.0
2018-Feb-17 13:58N 51°14' E 002°56'0 0.0
2018-Feb-17 13:25N 51°14' E 002°56'0 0.0
2018-Feb-17 12:58N 51°14' E 002°56'0 0.0
2018-Feb-17 12:28N 51°14' E 002°56'0 0.0
2018-Feb-17 11:58N 51°14' E 002°56'0 0.0
2018-Feb-17 11:28N 51°14' E 002°56'0 0.0
2018-Feb-17 10:58N 51°14' E 002°56'0 0.0
2018-Feb-17 10:28N 51°14' E 002°56'0 0.0
2018-Feb-17 09:55N 51°14' E 002°56'0 0.0
2018-Feb-17 09:25N 51°14' E 002°56'0 0.0
2018-Feb-17 08:58N 51°14' E 002°56'0 0.0
2018-Feb-17 08:28N 51°14' E 002°56'0 0.0
2018-Feb-17 07:58N 51°14' E 002°56'0 0.0
2018-Feb-17 07:28N 51°14' E 002°56'0 0.0
2018-Feb-17 06:55N 51°14' E 002°56'0 0.0
2018-Feb-17 06:28N 51°14' E 002°56'0 0.0
2018-Feb-17 05:58N 51°14' E 002°56'0 0.0
2018-Feb-17 05:28N 51°14' E 002°56'0 0.0
2018-Feb-17 04:58N 51°14' E 002°56'0 0.0
2018-Feb-17 04:22N 51°14' E 002°56'0 0.0
2018-Feb-17 03:58N 51°14' E 002°56'0 0.0
2018-Feb-17 03:28N 51°14' E 002°56'0 0.0
2018-Feb-17 03:00N 51°14' E 002°56'0 0.0
2018-Feb-17 02:30N 51°14' E 002°56'0 0.0
2018-Feb-17 02:01N 51°14' E 002°56'0 0.0
2018-Feb-17 01:31N 51°14' E 002°56'0 0.0
2018-Feb-17 01:00N 51°14' E 002°56'0 0.0
2018-Feb-17 00:30N 51°14' E 002°56'0 0.0
2018-Feb-17 00:00N 51°14' E 002°56'0 0.0
2018-Feb-16 23:30N 51°14' E 002°56'0 0.0
2018-Feb-16 23:01N 51°14' E 002°56'0 0.0
2018-Feb-16 22:30N 51°14' E 002°56'0 0.0
2018-Feb-16 22:00N 51°14' E 002°56'0 0.0
2018-Feb-16 21:30N 51°14' E 002°56'0 0.0
2018-Feb-16 21:00N 51°14' E 002°56'0 0.0
2018-Feb-16 20:30N 51°14' E 002°56'0 0.0
2018-Feb-16 20:00N 51°14' E 002°56'0 0.0
2018-Feb-16 19:31N 51°14' E 002°56'0 0.0
2018-Feb-16 19:00N 51°14' E 002°56'0 0.0
2018-Feb-16 18:30N 51°14' E 002°56'0 0.0
2018-Feb-16 18:00N 51°14' E 002°56'0 0.0
2018-Feb-16 17:31N 51°14' E 002°56'0 0.0
2018-Feb-16 17:00N 51°14' E 002°56'1 2.0
2018-Feb-16 16:31N 51°15' E 002°55'510.0
2018-Feb-16 16:00N 51°19' E 002°50'510.1
2018-Feb-16 15:30N 51°22' E 002°44'2 4.4
2018-Feb-16 14:59N 51°24' E 002°44'2 3.8
2018-Feb-16 14:30N 51°26' E 002°45'2 3.6
2018-Feb-16 13:58N 51°28' E 002°46'2 3.7
2018-Feb-16 13:30N 51°30' E 002°47'2 3.6
2018-Feb-16 13:00N 51°31' E 002°48'2 3.7
2018-Feb-16 12:29N 51°33' E 002°49'2 4.4
2018-Feb-16 12:00N 51°35' E 002°50'3 4.8
2018-Feb-16 11:28N 51°38' E 002°51'3 5.3
2018-Feb-16 10:59N 51°39' E 002°54'0 0.1
2018-Feb-16 10:30N 51°39' E 002°54'0 0.0
2018-Feb-16 09:59N 51°39' E 002°54'0 0.0
2018-Feb-16 09:30N 51°39' E 002°54'0 0.0
2018-Feb-16 08:59N 51°39' E 002°54'0 0.0
2018-Feb-16 08:27N 51°39' E 002°54'0 0.0
2018-Feb-16 07:59N 51°39' E 002°54'0 0.0
2018-Feb-16 07:28N 51°39' E 002°54'0 0.0
2018-Feb-16 06:59N 51°39' E 002°54'0 0.0
2018-Feb-16 06:30N 51°39' E 002°54'0 0.0
2018-Feb-16 06:00N 51°39' E 002°54'0 0.0
2018-Feb-16 05:28N 51°39' E 002°54'0 0.0
2018-Feb-16 04:54N 51°39' E 002°54'0 0.0
2018-Feb-16 04:27N 51°39' E 002°54'0 0.0
2018-Feb-16 03:59N 51°39' E 002°54'0 0.0
2018-Feb-16 03:30N 51°39' E 002°54'0 0.0
2018-Feb-16 02:59N 51°39' E 002°54'0 0.0
2018-Feb-16 02:30N 51°39' E 002°54'0 0.0
2018-Feb-16 01:57N 51°39' E 002°54'0 0.0
2018-Feb-16 01:29N 51°39' E 002°54'0 0.0
2018-Feb-16 00:59N 51°39' E 002°54'0 0.0
2018-Feb-16 00:30N 51°39' E 002°54'0 0.0
2018-Feb-15 23:59N 51°39' E 002°54'0 0.0
2018-Feb-15 23:28N 51°39' E 002°54'0 0.0
2018-Feb-15 22:59N 51°39' E 002°54'0 0.1
2018-Feb-15 22:28N 51°39' E 002°54'0 0.0
2018-Feb-15 21:59N 51°39' E 002°54'0 0.0
2018-Feb-15 21:29N 51°39' E 002°54'0 0.0
2018-Feb-15 20:58N 51°39' E 002°54'0 0.0
2018-Feb-15 20:30N 51°39' E 002°54'0 0.0
2018-Feb-15 19:59N 51°39' E 002°54'0 0.0
2018-Feb-15 19:29N 51°39' E 002°54'0 0.0
2018-Feb-15 18:59N 51°39' E 002°54'0 0.0
2018-Feb-15 18:29N 51°39' E 002°54'0 0.0
2018-Feb-15 17:58N 51°39' E 002°54'0 0.0
2018-Feb-15 17:30N 51°39' E 002°54'0 0.0
2018-Feb-15 17:00N 51°39' E 002°54'0 0.0
2018-Feb-15 16:30N 51°39' E 002°54'0 0.0
2018-Feb-15 16:00N 51°39' E 002°54'0 0.0
2018-Feb-15 15:30N 51°39' E 002°54'0 0.0
2018-Feb-15 15:00N 51°39' E 002°54'0 0.0
2018-Feb-15 14:30N 51°39' E 002°54'0 0.0
2018-Feb-15 13:59N 51°39' E 002°54'0 0.0
2018-Feb-15 13:30N 51°39' E 002°54'0 0.0
2018-Feb-15 12:58N 51°39' E 002°54'0 0.0
2018-Feb-15 12:29N 51°39' E 002°54'0 0.0
2018-Feb-15 12:00N 51°39' E 002°54'0 0.0
2018-Feb-15 11:26N 51°39' E 002°54'0 0.0
2018-Feb-15 10:58N 51°39' E 002°54'0 0.0
2018-Feb-15 10:30N 51°39' E 002°54'0 0.0
2018-Feb-15 09:59N 51°39' E 002°54'0 0.0
2018-Feb-15 09:25N 51°39' E 002°54'0 0.4
2018-Feb-15 08:59N 51°39' E 002°54'7 9.5
2018-Feb-15 08:16N 51°33' E 002°48'310.5
2018-Feb-15 07:58N 51°30' E 002°47'510.8
2018-Feb-15 07:30N 51°25' E 002°44'5 9.2
2018-Feb-15 07:00N 51°21' E 002°47'611.1
2018-Feb-15 06:30N 51°17' E 002°53'3 6.1
2018-Feb-15 05:57N 51°14' E 002°56'0 0.0
2018-Feb-15 05:30N 51°14' E 002°56'0 0.0
2018-Feb-15 04:51N 51°14' E 002°56'0 0.0
2018-Feb-15 04:30N 51°14' E 002°56'0 0.0
2018-Feb-15 03:57N 51°14' E 002°56'0 0.0
2018-Feb-15 03:30N 51°14' E 002°56'0 0.0
2018-Feb-15 02:09N 51°14' E 002°56'0 0.0
2018-Feb-15 01:36N 51°14' E 002°56'  

Dump ship's entire track history